sensor_id;sensor_type;location;lat;lon;timestamp;temperature;humidity
54431;DHT22;40342;52.998;5.862;2022-09-09T00:04:23;15.40;99.90
54431;DHT22;40342;52.998;5.862;2022-09-09T00:09:44;15.30;99.90
54431;DHT22;40342;52.998;5.862;2022-09-09T00:12:14;15.30;99.90
54431;DHT22;40342;52.998;5.862;2022-09-09T00:15:00;15.20;99.90
54431;DHT22;40342;52.998;5.862;2022-09-09T00:23:00;15.20;99.90
54431;DHT22;40342;52.998;5.862;2022-09-09T00:25:54;15.20;99.90
54431;DHT22;40342;52.998;5.862;2022-09-09T00:28:25;15.20;99.90
54431;DHT22;40342;52.998;5.862;2022-09-09T00:30:52;15.20;99.90
54431;DHT22;40342;52.998;5.862;2022-09-09T00:33:21;15.20;99.90
54431;DHT22;40342;52.998;5.862;2022-09-09T00:35:56;15.20;99.90
54431;DHT22;40342;52.998;5.862;2022-09-09T00:38:28;15.20;99.90
54431;DHT22;40342;52.998;5.862;2022-09-09T00:44:32;15.20;99.90
54431;DHT22;40342;52.998;5.862;2022-09-09T00:52:59;15.30;99.90
54431;DHT22;40342;52.998;5.862;2022-09-09T00:55:48;15.30;99.90
54431;DHT22;40342;52.998;5.862;2022-09-09T00:58:14;15.20;99.90
54431;DHT22;40342;52.998;5.862;2022-09-09T01:09:08;15.20;99.90
54431;DHT22;40342;52.998;5.862;2022-09-09T01:17:03;15.20;99.90
54431;DHT22;40342;52.998;5.862;2022-09-09T01:19:45;15.10;99.90
54431;DHT22;40342;52.998;5.862;2022-09-09T01:22:34;15.10;99.90
54431;DHT22;40342;52.998;5.862;2022-09-09T01:25:13;15.20;99.90
54431;DHT22;40342;52.998;5.862;2022-09-09T01:27:43;15.20;99.90
54431;DHT22;40342;52.998;5.862;2022-09-09T01:30:13;15.10;99.90
54431;DHT22;40342;52.998;5.862;2022-09-09T01:32:48;15.10;99.90
54431;DHT22;40342;52.998;5.862;2022-09-09T01:37:51;15.10;99.90
54431;DHT22;40342;52.998;5.862;2022-09-09T01:40:17;15.10;99.90
54431;DHT22;40342;52.998;5.862;2022-09-09T01:42:42;15.10;99.90
54431;DHT22;40342;52.998;5.862;2022-09-09T01:45:09;15.10;99.90
54431;DHT22;40342;52.998;5.862;2022-09-09T01:47:35;15.10;99.90
54431;DHT22;40342;52.998;5.862;2022-09-09T01:50:02;15.10;99.90
54431;DHT22;40342;52.998;5.862;2022-09-09T01:52:29;15.10;99.90
54431;DHT22;40342;52.998;5.862;2022-09-09T01:54:55;15.10;99.90
54431;DHT22;40342;52.998;5.862;2022-09-09T01:57:39;15.10;99.90
54431;DHT22;40342;52.998;5.862;2022-09-09T02:00:10;15.10;99.90
54431;DHT22;40342;52.998;5.862;2022-09-09T02:08:06;15.10;99.90
54431;DHT22;40342;52.998;5.862;2022-09-09T02:10:40;15.00;99.90
54431;DHT22;40342;52.998;5.862;2022-09-09T02:13:13;15.10;99.90
54431;DHT22;40342;52.998;5.862;2022-09-09T02:18:23;15.10;99.90
54431;DHT22;40342;52.998;5.862;2022-09-09T02:20:50;15.10;99.90
54431;DHT22;40342;52.998;5.862;2022-09-09T02:23:17;15.10;99.90
54431;DHT22;40342;52.998;5.862;2022-09-09T02:25:45;15.10;99.90
54431;DHT22;40342;52.998;5.862;2022-09-09T02:28:13;15.10;99.90
54431;DHT22;40342;52.998;5.862;2022-09-09T02:30:42;15.10;99.90
54431;DHT22;40342;52.998;5.862;2022-09-09T02:33:10;15.10;99.90
54431;DHT22;40342;52.998;5.862;2022-09-09T02:35:38;15.10;99.90
54431;DHT22;40342;52.998;5.862;2022-09-09T02:38:08;15.10;99.90
54431;DHT22;40342;52.998;5.862;2022-09-09T02:40:34;15.10;99.90
54431;DHT22;40342;52.998;5.862;2022-09-09T02:43:00;15.10;99.90
54431;DHT22;40342;52.998;5.862;2022-09-09T02:46:12;15.10;99.90
54431;DHT22;40342;52.998;5.862;2022-09-09T02:51:09;15.10;99.90
54431;DHT22;40342;52.998;5.862;2022-09-09T02:53:49;15.10;99.90
54431;DHT22;40342;52.998;5.862;2022-09-09T02:56:20;15.10;99.90
54431;DHT22;40342;52.998;5.862;2022-09-09T02:58:47;15.10;99.90
54431;DHT22;40342;52.998;5.862;2022-09-09T03:01:13;15.10;99.90
54431;DHT22;40342;52.998;5.862;2022-09-09T03:03:39;15.10;99.90
54431;DHT22;40342;52.998;5.862;2022-09-09T03:06:07;15.10;99.90
54431;DHT22;40342;52.998;5.862;2022-09-09T03:08:32;15.10;99.90
54431;DHT22;40342;52.998;5.862;2022-09-09T03:11:01;15.10;99.90
54431;DHT22;40342;52.998;5.862;2022-09-09T03:13:27;15.10;99.90
54431;DHT22;40342;52.998;5.862;2022-09-09T03:15:52;15.00;99.90
54431;DHT22;40342;52.998;5.862;2022-09-09T03:18:18;15.00;99.90
54431;DHT22;40342;52.998;5.862;2022-09-09T03:20:43;15.00;99.90
54431;DHT22;40342;52.998;5.862;2022-09-09T03:23:09;15.00;99.90
54431;DHT22;40342;52.998;5.862;2022-09-09T03:25:34;15.00;99.90
54431;DHT22;40342;52.998;5.862;2022-09-09T03:28:01;15.00;99.90
54431;DHT22;40342;52.998;5.862;2022-09-09T03:30:27;15.00;99.90
54431;DHT22;40342;52.998;5.862;2022-09-09T03:32:53;15.00;99.90
54431;DHT22;40342;52.998;5.862;2022-09-09T03:35:20;15.00;99.90
54431;DHT22;40342;52.998;5.862;2022-09-09T03:37:46;15.00;99.90
54431;DHT22;40342;52.998;5.862;2022-09-09T03:40:12;15.00;99.90
54431;DHT22;40342;52.998;5.862;2022-09-09T03:42:38;15.00;99.90
54431;DHT22;40342;52.998;5.862;2022-09-09T03:45:05;14.90;99.90
54431;DHT22;40342;52.998;5.862;2022-09-09T03:47:31;14.90;99.90
54431;DHT22;40342;52.998;5.862;2022-09-09T03:49:57;14.90;99.90
54431;DHT22;40342;52.998;5.862;2022-09-09T03:52:22;14.90;99.90
54431;DHT22;40342;52.998;5.862;2022-09-09T03:54:52;14.90;99.90
54431;DHT22;40342;52.998;5.862;2022-09-09T03:57:18;14.90;99.90
54431;DHT22;40342;52.998;5.862;2022-09-09T03:59:44;14.90;99.90
54431;DHT22;40342;52.998;5.862;2022-09-09T04:02:10;14.90;99.90
54431;DHT22;40342;52.998;5.862;2022-09-09T04:04:35;14.90;99.90
54431;DHT22;40342;52.998;5.862;2022-09-09T04:07:01;14.90;99.90
54431;DHT22;40342;52.998;5.862;2022-09-09T04:09:27;14.90;99.90
54431;DHT22;40342;52.998;5.862;2022-09-09T04:11:53;14.90;99.90
54431;DHT22;40342;52.998;5.862;2022-09-09T04:14:19;14.90;99.90
54431;DHT22;40342;52.998;5.862;2022-09-09T04:16:45;14.90;99.90
54431;DHT22;40342;52.998;5.862;2022-09-09T04:19:11;15.40;99.90
54431;DHT22;40342;52.998;5.862;2022-09-09T04:21:39;14.90;99.90
54431;DHT22;40342;52.998;5.862;2022-09-09T04:24:06;14.90;99.90
54431;DHT22;40342;52.998;5.862;2022-09-09T04:26:32;14.90;99.90
54431;DHT22;40342;52.998;5.862;2022-09-09T04:28:58;14.90;99.90
54431;DHT22;40342;52.998;5.862;2022-09-09T04:31:24;14.90;99.90
54431;DHT22;40342;52.998;5.862;2022-09-09T04:33:52;14.90;99.90
54431;DHT22;40342;52.998;5.862;2022-09-09T04:36:18;14.90;99.90
54431;DHT22;40342;52.998;5.862;2022-09-09T04:38:45;14.90;99.90
54431;DHT22;40342;52.998;5.862;2022-09-09T04:41:10;14.90;99.90
54431;DHT22;40342;52.998;5.862;2022-09-09T04:43:37;14.90;99.90
54431;DHT22;40342;52.998;5.862;2022-09-09T04:46:03;14.80;99.90
54431;DHT22;40342;52.998;5.862;2022-09-09T04:48:29;14.90;99.90
54431;DHT22;40342;52.998;5.862;2022-09-09T04:51:02;14.90;99.90
54431;DHT22;40342;52.998;5.862;2022-09-09T04:53:29;14.90;99.90
54431;DHT22;40342;52.998;5.862;2022-09-09T04:56:05;14.80;99.90
54431;DHT22;40342;52.998;5.862;2022-09-09T04:58:32;14.80;99.90
54431;DHT22;40342;52.998;5.862;2022-09-09T05:01:06;14.80;99.90
54431;DHT22;40342;52.998;5.862;2022-09-09T05:03:32;14.80;99.90
54431;DHT22;40342;52.998;5.862;2022-09-09T05:06:09;14.80;99.90
54431;DHT22;40342;52.998;5.862;2022-09-09T05:08:39;14.70;99.90
54431;DHT22;40342;52.998;5.862;2022-09-09T05:11:19;14.80;99.90
54431;DHT22;40342;52.998;5.862;2022-09-09T05:13:46;14.80;99.90
54431;DHT22;40342;52.998;5.862;2022-09-09T05:16:13;14.70;99.90
54431;DHT22;40342;52.998;5.862;2022-09-09T05:18:40;14.70;99.90
54431;DHT22;40342;52.998;5.862;2022-09-09T05:21:06;14.70;99.90
54431;DHT22;40342;52.998;5.862;2022-09-09T05:23:32;14.70;99.90
54431;DHT22;40342;52.998;5.862;2022-09-09T05:25:59;14.70;99.90
54431;DHT22;40342;52.998;5.862;2022-09-09T05:28:26;14.70;99.90
54431;DHT22;40342;52.998;5.862;2022-09-09T05:30:56;14.70;99.90
54431;DHT22;40342;52.998;5.862;2022-09-09T05:33:22;14.70;99.90
54431;DHT22;40342;52.998;5.862;2022-09-09T05:35:58;14.70;99.90
54431;DHT22;40342;52.998;5.862;2022-09-09T05:38:23;14.70;99.90
54431;DHT22;40342;52.998;5.862;2022-09-09T05:40:51;14.70;99.90
54431;DHT22;40342;52.998;5.862;2022-09-09T05:43:20;14.70;99.90
54431;DHT22;40342;52.998;5.862;2022-09-09T05:45:47;14.70;99.90
54431;DHT22;40342;52.998;5.862;2022-09-09T05:48:16;14.70;99.90
54431;DHT22;40342;52.998;5.862;2022-09-09T05:50:42;14.70;99.90
54431;DHT22;40342;52.998;5.862;2022-09-09T05:53:09;14.70;99.90
54431;DHT22;40342;52.998;5.862;2022-09-09T05:55:35;14.70;99.90
54431;DHT22;40342;52.998;5.862;2022-09-09T05:58:01;14.70;99.90
54431;DHT22;40342;52.998;5.862;2022-09-09T06:00:27;14.70;99.90
54431;DHT22;40342;52.998;5.862;2022-09-09T06:02:53;14.70;99.90
54431;DHT22;40342;52.998;5.862;2022-09-09T06:05:19;14.80;99.90
54431;DHT22;40342;52.998;5.862;2022-09-09T06:07:45;14.80;99.90
54431;DHT22;40342;52.998;5.862;2022-09-09T06:10:11;14.80;99.90
54431;DHT22;40342;52.998;5.862;2022-09-09T06:12:39;14.80;99.90
54431;DHT22;40342;52.998;5.862;2022-09-09T06:15:05;14.80;99.90
54431;DHT22;40342;52.998;5.862;2022-09-09T06:17:31;14.80;99.90
54431;DHT22;40342;52.998;5.862;2022-09-09T06:19:56;14.80;99.90
54431;DHT22;40342;52.998;5.862;2022-09-09T06:22:22;14.80;99.90
54431;DHT22;40342;52.998;5.862;2022-09-09T06:24:48;14.80;99.90
54431;DHT22;40342;52.998;5.862;2022-09-09T06:27:13;14.70;99.90
54431;DHT22;40342;52.998;5.862;2022-09-09T06:29:39;14.80;99.90
54431;DHT22;40342;52.998;5.862;2022-09-09T06:32:05;14.80;99.90
54431;DHT22;40342;52.998;5.862;2022-09-09T06:34:30;14.80;99.90
54431;DHT22;40342;52.998;5.862;2022-09-09T06:36:56;14.90;99.90
54431;DHT22;40342;52.998;5.862;2022-09-09T06:39:23;14.90;99.90
54431;DHT22;40342;52.998;5.862;2022-09-09T06:41:49;14.80;99.90
54431;DHT22;40342;52.998;5.862;2022-09-09T06:44:15;14.80;99.90
54431;DHT22;40342;52.998;5.862;2022-09-09T06:46:41;14.80;99.90
54431;DHT22;40342;52.998;5.862;2022-09-09T06:49:08;14.90;99.90
54431;DHT22;40342;52.998;5.862;2022-09-09T06:51:36;14.80;99.90
54431;DHT22;40342;52.998;5.862;2022-09-09T06:54:02;14.90;99.90
54431;DHT22;40342;52.998;5.862;2022-09-09T06:56:36;14.80;99.90
54431;DHT22;40342;52.998;5.862;2022-09-09T06:59:03;14.90;99.90
54431;DHT22;40342;52.998;5.862;2022-09-09T07:01:33;14.90;99.90
54431;DHT22;40342;52.998;5.862;2022-09-09T07:04:00;14.90;99.90
54431;DHT22;40342;52.998;5.862;2022-09-09T07:06:37;14.90;99.90
54431;DHT22;40342;52.998;5.862;2022-09-09T07:09:11;14.90;99.90
54431;DHT22;40342;52.998;5.862;2022-09-09T07:11:48;14.90;99.90
54431;DHT22;40342;52.998;5.862;2022-09-09T07:14:14;15.00;99.90
54431;DHT22;40342;52.998;5.862;2022-09-09T07:16:44;15.00;99.90
54431;DHT22;40342;52.998;5.862;2022-09-09T07:19:11;15.00;99.90
54431;DHT22;40342;52.998;5.862;2022-09-09T07:21:38;15.00;99.90
54431;DHT22;40342;52.998;5.862;2022-09-09T07:24:05;15.10;99.90
54431;DHT22;40342;52.998;5.862;2022-09-09T07:26:33;15.10;99.90
54431;DHT22;40342;52.998;5.862;2022-09-09T07:28:59;15.10;99.90
54431;DHT22;40342;52.998;5.862;2022-09-09T07:31:30;15.10;99.90
54431;DHT22;40342;52.998;5.862;2022-09-09T07:34:00;15.20;99.90
54431;DHT22;40342;52.998;5.862;2022-09-09T07:36:31;15.20;99.90
54431;DHT22;40342;52.998;5.862;2022-09-09T07:39:04;15.30;99.90
54431;DHT22;40342;52.998;5.862;2022-09-09T07:41:37;15.30;99.90
54431;DHT22;40342;52.998;5.862;2022-09-09T07:44:06;15.40;99.90
54431;DHT22;40342;52.998;5.862;2022-09-09T07:46:32;15.40;99.90
54431;DHT22;40342;52.998;5.862;2022-09-09T07:48:58;15.40;99.90
54431;DHT22;40342;52.998;5.862;2022-09-09T07:51:26;15.50;99.90
54431;DHT22;40342;52.998;5.862;2022-09-09T07:53:56;15.50;99.90
54431;DHT22;40342;52.998;5.862;2022-09-09T07:56:23;15.60;99.90
54431;DHT22;40342;52.998;5.862;2022-09-09T07:58:51;15.60;99.90
54431;DHT22;40342;52.998;5.862;2022-09-09T08:03:45;15.80;99.90
54431;DHT22;40342;52.998;5.862;2022-09-09T08:06:12;15.80;99.90
54431;DHT22;40342;52.998;5.862;2022-09-09T08:08:39;16.00;99.90
54431;DHT22;40342;52.998;5.862;2022-09-09T08:11:15;16.00;99.90
54431;DHT22;40342;52.998;5.862;2022-09-09T08:13:42;16.10;99.90
54431;DHT22;40342;52.998;5.862;2022-09-09T08:16:14;16.20;99.90
54431;DHT22;40342;52.998;5.862;2022-09-09T08:18:40;16.20;99.90
54431;DHT22;40342;52.998;5.862;2022-09-09T08:21:09;16.30;99.90
54431;DHT22;40342;52.998;5.862;2022-09-09T08:23:38;16.40;99.90
54431;DHT22;40342;52.998;5.862;2022-09-09T08:26:06;16.40;99.90
54431;DHT22;40342;52.998;5.862;2022-09-09T08:28:31;16.40;99.90
54431;DHT22;40342;52.998;5.862;2022-09-09T08:31:14;16.40;99.90
54431;DHT22;40342;52.998;5.862;2022-09-09T08:33:41;16.40;99.90
54431;DHT22;40342;52.998;5.862;2022-09-09T08:36:09;16.50;99.90
54431;DHT22;40342;52.998;5.862;2022-09-09T08:38:35;16.50;99.90
54431;DHT22;40342;52.998;5.862;2022-09-09T08:43:52;16.60;99.90
54431;DHT22;40342;52.998;5.862;2022-09-09T08:49:55;16.70;99.90
54431;DHT22;40342;52.998;5.862;2022-09-09T08:52:32;16.70;99.90
54431;DHT22;40342;52.998;5.862;2022-09-09T08:55:14;16.80;99.90
54431;DHT22;40342;52.998;5.862;2022-09-09T08:57:40;16.80;99.90
54431;DHT22;40342;52.998;5.862;2022-09-09T09:00:09;16.90;99.90
54431;DHT22;40342;52.998;5.862;2022-09-09T09:03:06;17.00;99.90
54431;DHT22;40342;52.998;5.862;2022-09-09T09:05:48;17.00;99.90
54431;DHT22;40342;52.998;5.862;2022-09-09T09:10:56;17.00;99.90
54431;DHT22;40342;52.998;5.862;2022-09-09T09:16:00;17.50;99.90
54431;DHT22;40342;52.998;5.862;2022-09-09T09:18:27;17.00;99.90
54431;DHT22;40342;52.998;5.862;2022-09-09T09:21:10;17.00;99.90
54431;DHT22;40342;52.998;5.862;2022-09-09T09:23:59;17.10;99.90
54431;DHT22;40342;52.998;5.862;2022-09-09T09:26:31;17.10;99.90
54431;DHT22;40342;52.998;5.862;2022-09-09T09:28:58;17.20;99.90
54431;DHT22;40342;52.998;5.862;2022-09-09T09:31:24;17.20;99.90
54431;DHT22;40342;52.998;5.862;2022-09-09T09:33:56;17.30;99.90
54431;DHT22;40342;52.998;5.862;2022-09-09T09:36:44;17.30;99.90
54431;DHT22;40342;52.998;5.862;2022-09-09T09:39:22;17.40;99.90
54431;DHT22;40342;52.998;5.862;2022-09-09T09:41:48;17.60;99.90
54431;DHT22;40342;52.998;5.862;2022-09-09T09:44:31;17.60;99.90
54431;DHT22;40342;52.998;5.862;2022-09-09T09:47:08;17.70;99.90
54431;DHT22;40342;52.998;5.862;2022-09-09T09:49:34;17.70;99.90
54431;DHT22;40342;52.998;5.862;2022-09-09T09:52:03;17.60;99.90
54431;DHT22;40342;52.998;5.862;2022-09-09T09:54:33;17.60;99.90
54431;DHT22;40342;52.998;5.862;2022-09-09T09:57:12;17.60;99.90
54431;DHT22;40342;52.998;5.862;2022-09-09T09:59:39;17.60;99.90
54431;DHT22;40342;52.998;5.862;2022-09-09T10:04:47;17.60;99.90
54431;DHT22;40342;52.998;5.862;2022-09-09T10:07:18;17.60;99.90
54431;DHT22;40342;52.998;5.862;2022-09-09T10:09:44;17.60;99.90
54431;DHT22;40342;52.998;5.862;2022-09-09T10:12:17;17.50;99.90
54431;DHT22;40342;52.998;5.862;2022-09-09T10:20:36;17.60;99.90
54431;DHT22;40342;52.998;5.862;2022-09-09T10:23:21;17.60;99.90
54431;DHT22;40342;52.998;5.862;2022-09-09T10:36:26;17.70;99.90
54431;DHT22;40342;52.998;5.862;2022-09-09T10:41:46;17.70;99.90
54431;DHT22;40342;52.998;5.862;2022-09-09T10:53:09;17.80;99.90
54431;DHT22;40342;52.998;5.862;2022-09-09T10:55:41;17.80;99.90
54431;DHT22;40342;52.998;5.862;2022-09-09T10:58:20;17.80;99.90
54431;DHT22;40342;52.998;5.862;2022-09-09T11:00:52;17.80;99.90
54431;DHT22;40342;52.998;5.862;2022-09-09T11:03:28;17.80;99.90
54431;DHT22;40342;52.998;5.862;2022-09-09T11:06:18;17.90;99.90
54431;DHT22;40342;52.998;5.862;2022-09-09T11:08:45;17.80;99.90
54431;DHT22;40342;52.998;5.862;2022-09-09T11:11:25;17.80;99.90
54431;DHT22;40342;52.998;5.862;2022-09-09T11:19:38;18.00;99.90
54431;DHT22;40342;52.998;5.862;2022-09-09T11:22:27;18.20;99.90
54431;DHT22;40342;52.998;5.862;2022-09-09T11:25:03;18.40;99.90
54431;DHT22;40342;52.998;5.862;2022-09-09T11:41:36;18.60;99.90
54431;DHT22;40342;52.998;5.862;2022-09-09T11:44:24;18.60;99.90
54431;DHT22;40342;52.998;5.862;2022-09-09T11:46:51;18.50;99.90
54431;DHT22;40342;52.998;5.862;2022-09-09T11:49:44;18.50;99.90
54431;DHT22;40342;52.998;5.862;2022-09-09T11:55:11;18.40;99.90
54431;DHT22;40342;52.998;5.862;2022-09-09T11:57:38;18.30;99.90
54431;DHT22;40342;52.998;5.862;2022-09-09T12:00:05;18.30;99.90
54431;DHT22;40342;52.998;5.862;2022-09-09T12:02:31;18.30;99.90
54431;DHT22;40342;52.998;5.862;2022-09-09T12:05:08;18.40;99.90
54431;DHT22;40342;52.998;5.862;2022-09-09T12:07:51;18.40;99.90
54431;DHT22;40342;52.998;5.862;2022-09-09T12:10:31;18.40;99.90
54431;DHT22;40342;52.998;5.862;2022-09-09T12:13:18;18.40;99.90
54431;DHT22;40342;52.998;5.862;2022-09-09T12:15:55;18.30;99.90
54431;DHT22;40342;52.998;5.862;2022-09-09T12:18:35;18.30;99.90
54431;DHT22;40342;52.998;5.862;2022-09-09T12:23:56;18.20;99.90
54431;DHT22;40342;52.998;5.862;2022-09-09T12:26:41;18.20;99.90
54431;DHT22;40342;52.998;5.862;2022-09-09T12:34:27;18.80;99.90
54431;DHT22;40342;52.998;5.862;2022-09-09T12:36:59;18.90;99.90
54431;DHT22;40342;52.998;5.862;2022-09-09T12:39:47;19.10;99.90
54431;DHT22;40342;52.998;5.862;2022-09-09T12:42:19;19.20;99.90
54431;DHT22;40342;52.998;5.862;2022-09-09T12:44:53;19.20;99.90
54431;DHT22;40342;52.998;5.862;2022-09-09T12:47:21;19.10;99.90
54431;DHT22;40342;52.998;5.862;2022-09-09T12:49:49;19.10;99.90
54431;DHT22;40342;52.998;5.862;2022-09-09T12:52:23;19.10;99.90
54431;DHT22;40342;52.998;5.862;2022-09-09T12:54:52;19.30;99.90
54431;DHT22;40342;52.998;5.862;2022-09-09T12:57:20;19.50;99.90
54431;DHT22;40342;52.998;5.862;2022-09-09T12:59:47;19.70;99.90
54431;DHT22;40342;52.998;5.862;2022-09-09T13:02:22;19.80;99.90
54431;DHT22;40342;52.998;5.862;2022-09-09T13:04:49;19.80;99.90
54431;DHT22;40342;52.998;5.862;2022-09-09T13:07:17;19.70;99.90
54431;DHT22;40342;52.998;5.862;2022-09-09T13:09:44;19.60;99.90
54431;DHT22;40342;52.998;5.862;2022-09-09T13:12:18;19.50;99.90
54431;DHT22;40342;52.998;5.862;2022-09-09T13:14:48;19.20;99.90
54431;DHT22;40342;52.998;5.862;2022-09-09T13:17:21;18.90;99.90
54431;DHT22;40342;52.998;5.862;2022-09-09T13:19:47;18.70;99.90
54431;DHT22;40342;52.998;5.862;2022-09-09T13:22:42;18.70;99.90
54431;DHT22;40342;52.998;5.862;2022-09-09T13:27:41;18.60;99.90
54431;DHT22;40342;52.998;5.862;2022-09-09T13:38:24;19.00;99.90
54431;DHT22;40342;52.998;5.862;2022-09-09T13:40:59;19.20;99.90
54431;DHT22;40342;52.998;5.862;2022-09-09T13:43:27;19.30;99.90
54431;DHT22;40342;52.998;5.862;2022-09-09T13:45:55;19.40;99.90
54431;DHT22;40342;52.998;5.862;2022-09-09T13:48:22;19.40;99.90
54431;DHT22;40342;52.998;5.862;2022-09-09T13:50:59;19.60;99.90
54431;DHT22;40342;52.998;5.862;2022-09-09T13:53:25;19.60;99.90
54431;DHT22;40342;52.998;5.862;2022-09-09T13:55:51;19.50;99.90
54431;DHT22;40342;52.998;5.862;2022-09-09T13:58:18;19.50;99.90
54431;DHT22;40342;52.998;5.862;2022-09-09T14:00:45;19.50;99.90
54431;DHT22;40342;52.998;5.862;2022-09-09T14:03:11;19.50;99.90
54431;DHT22;40342;52.998;5.862;2022-09-09T14:05:36;19.40;99.90
54431;DHT22;40342;52.998;5.862;2022-09-09T14:08:04;19.40;99.90
54431;DHT22;40342;52.998;5.862;2022-09-09T14:10:30;19.30;99.90
54431;DHT22;40342;52.998;5.862;2022-09-09T14:12:56;19.40;99.90
54431;DHT22;40342;52.998;5.862;2022-09-09T14:15:22;19.40;99.90
54431;DHT22;40342;52.998;5.862;2022-09-09T14:17:47;19.50;99.90
54431;DHT22;40342;52.998;5.862;2022-09-09T14:20:14;19.40;99.90
54431;DHT22;40342;52.998;5.862;2022-09-09T14:22:41;19.30;99.90
54431;DHT22;40342;52.998;5.862;2022-09-09T14:25:07;19.20;99.90
54431;DHT22;40342;52.998;5.862;2022-09-09T14:27:33;19.20;99.90
54431;DHT22;40342;52.998;5.862;2022-09-09T14:29:59;19.10;99.90
54431;DHT22;40342;52.998;5.862;2022-09-09T14:32:26;19.00;99.90
54431;DHT22;40342;52.998;5.862;2022-09-09T14:34:52;18.90;99.90
54431;DHT22;40342;52.998;5.862;2022-09-09T14:37:19;18.90;99.90
54431;DHT22;40342;52.998;5.862;2022-09-09T14:39:45;18.80;99.90
54431;DHT22;40342;52.998;5.862;2022-09-09T14:42:13;18.70;99.90
54431;DHT22;40342;52.998;5.862;2022-09-09T14:44:38;18.50;99.90
54431;DHT22;40342;52.998;5.862;2022-09-09T14:47:08;18.30;99.90
54431;DHT22;40342;52.998;5.862;2022-09-09T14:49:36;18.10;99.90
54431;DHT22;40342;52.998;5.862;2022-09-09T14:52:03;17.80;99.90
54431;DHT22;40342;52.998;5.862;2022-09-09T14:54:31;17.50;99.90
54431;DHT22;40342;52.998;5.862;2022-09-09T14:56:57;17.40;99.90
54431;DHT22;40342;52.998;5.862;2022-09-09T14:59:23;17.20;99.90
54431;DHT22;40342;52.998;5.862;2022-09-09T15:01:49;17.20;99.90
54431;DHT22;40342;52.998;5.862;2022-09-09T15:04:15;17.10;99.90
54431;DHT22;40342;52.998;5.862;2022-09-09T15:06:42;17.00;99.90
54431;DHT22;40342;52.998;5.862;2022-09-09T15:09:10;17.00;99.90
54431;DHT22;40342;52.998;5.862;2022-09-09T15:11:37;17.00;99.90
54431;DHT22;40342;52.998;5.862;2022-09-09T15:14:07;17.10;99.90
54431;DHT22;40342;52.998;5.862;2022-09-09T15:16:34;17.10;99.90
54431;DHT22;40342;52.998;5.862;2022-09-09T15:19:01;17.20;99.90
54431;DHT22;40342;52.998;5.862;2022-09-09T15:21:31;17.20;99.90
54431;DHT22;40342;52.998;5.862;2022-09-09T15:23:57;17.20;99.90
54431;DHT22;40342;52.998;5.862;2022-09-09T15:26:24;17.30;99.90
54431;DHT22;40342;52.998;5.862;2022-09-09T15:28:50;17.40;99.90
54431;DHT22;40342;52.998;5.862;2022-09-09T15:31:21;17.40;99.90
54431;DHT22;40342;52.998;5.862;2022-09-09T15:33:52;17.50;99.90
54431;DHT22;40342;52.998;5.862;2022-09-09T15:36:25;17.60;99.90
54431;DHT22;40342;52.998;5.862;2022-09-09T15:38:52;17.60;99.90
54431;DHT22;40342;52.998;5.862;2022-09-09T15:41:19;17.60;99.90
54431;DHT22;40342;52.998;5.862;2022-09-09T15:43:47;17.60;99.90
54431;DHT22;40342;52.998;5.862;2022-09-09T15:48:43;17.80;99.90
54431;DHT22;40342;52.998;5.862;2022-09-09T15:51:12;17.80;99.90
54431;DHT22;40342;52.998;5.862;2022-09-09T15:53:39;17.80;99.90
54431;DHT22;40342;52.998;5.862;2022-09-09T15:56:06;17.90;99.90
54431;DHT22;40342;52.998;5.862;2022-09-09T15:58:32;17.90;99.90
54431;DHT22;40342;52.998;5.862;2022-09-09T16:01:05;17.90;99.90
54431;DHT22;40342;52.998;5.862;2022-09-09T16:03:38;18.00;99.90
54431;DHT22;40342;52.998;5.862;2022-09-09T16:06:05;18.00;99.90
54431;DHT22;40342;52.998;5.862;2022-09-09T16:08:32;18.00;99.90
54431;DHT22;40342;52.998;5.862;2022-09-09T16:11:08;18.00;99.90
54431;DHT22;40342;52.998;5.862;2022-09-09T16:13:39;18.00;99.90
54431;DHT22;40342;52.998;5.862;2022-09-09T16:16:05;18.00;99.90
54431;DHT22;40342;52.998;5.862;2022-09-09T16:18:36;18.00;99.90
54431;DHT22;40342;52.998;5.862;2022-09-09T16:21:03;17.90;99.90
54431;DHT22;40342;52.998;5.862;2022-09-09T16:23:31;17.90;99.90
54431;DHT22;40342;52.998;5.862;2022-09-09T16:25:58;17.90;99.90
54431;DHT22;40342;52.998;5.862;2022-09-09T16:28:23;18.10;99.90
54431;DHT22;40342;52.998;5.862;2022-09-09T16:30:49;17.90;99.90
54431;DHT22;40342;52.998;5.862;2022-09-09T16:33:16;17.90;99.90
54431;DHT22;40342;52.998;5.862;2022-09-09T16:35:41;17.80;99.90
54431;DHT22;40342;52.998;5.862;2022-09-09T16:38:07;17.80;99.90
54431;DHT22;40342;52.998;5.862;2022-09-09T16:40:37;17.70;99.90
54431;DHT22;40342;52.998;5.862;2022-09-09T16:43:05;17.70;99.90
54431;DHT22;40342;52.998;5.862;2022-09-09T16:45:44;17.70;99.90
54431;DHT22;40342;52.998;5.862;2022-09-09T16:48:11;17.70;99.90
54431;DHT22;40342;52.998;5.862;2022-09-09T16:50:37;17.70;99.90
54431;DHT22;40342;52.998;5.862;2022-09-09T16:53:03;17.70;99.90
54431;DHT22;40342;52.998;5.862;2022-09-09T16:55:32;17.60;99.90
54431;DHT22;40342;52.998;5.862;2022-09-09T16:57:57;17.60;99.90
54431;DHT22;40342;52.998;5.862;2022-09-09T17:00:23;17.60;99.90
54431;DHT22;40342;52.998;5.862;2022-09-09T17:02:48;17.60;99.90
54431;DHT22;40342;52.998;5.862;2022-09-09T17:05:14;17.60;99.90
54431;DHT22;40342;52.998;5.862;2022-09-09T17:07:40;17.60;99.90
54431;DHT22;40342;52.998;5.862;2022-09-09T17:10:06;17.60;99.90
54431;DHT22;40342;52.998;5.862;2022-09-09T17:12:32;17.60;99.90
54431;DHT22;40342;52.998;5.862;2022-09-09T17:14:58;17.60;99.90
54431;DHT22;40342;52.998;5.862;2022-09-09T17:17:25;17.60;99.90
54431;DHT22;40342;52.998;5.862;2022-09-09T17:19:52;17.80;99.90
54431;DHT22;40342;52.998;5.862;2022-09-09T17:22:17;17.60;99.90
54431;DHT22;40342;52.998;5.862;2022-09-09T17:24:44;17.60;99.90
54431;DHT22;40342;52.998;5.862;2022-09-09T17:27:09;17.60;99.90
54431;DHT22;40342;52.998;5.862;2022-09-09T17:29:35;17.60;99.90
54431;DHT22;40342;52.998;5.862;2022-09-09T17:32:04;17.50;99.90
54431;DHT22;40342;52.998;5.862;2022-09-09T17:34:34;17.50;99.90
54431;DHT22;40342;52.998;5.862;2022-09-09T17:36:59;17.50;99.90
54431;DHT22;40342;52.998;5.862;2022-09-09T17:39:25;17.50;99.90
54431;DHT22;40342;52.998;5.862;2022-09-09T17:41:51;17.40;99.90
54431;DHT22;40342;52.998;5.862;2022-09-09T17:44:18;17.50;99.90
54431;DHT22;40342;52.998;5.862;2022-09-09T17:46:45;17.40;99.90
54431;DHT22;40342;52.998;5.862;2022-09-09T17:49:13;17.40;99.90
54431;DHT22;40342;52.998;5.862;2022-09-09T17:51:39;17.40;99.90
54431;DHT22;40342;52.998;5.862;2022-09-09T17:54:10;17.40;99.90
54431;DHT22;40342;52.998;5.862;2022-09-09T17:56:37;17.40;99.90
54431;DHT22;40342;52.998;5.862;2022-09-09T17:59:05;17.40;99.90
54431;DHT22;40342;52.998;5.862;2022-09-09T18:01:34;17.40;99.90